Terminal Aerodrome Forecast
Issued by NWS Cleveland, OH

Home | Current Version | Previous Version | Graphics & Text | Print | Product List | Glossary On
Versions: 1 2 3 4 5 6 7 8 9 10 11 12 13 14 15 16 17 18 19
000
FTUS41 KCLE 162300
TAFYNG
TAF
KYNG 162338Z 1700/1724 16008KT P6SM -SHRA OVC025
     FM170600 20008KT P6SM OVC008
     FM171700 28008KT P6SM SCT008 OVC012
     FM172100 30008KT P6SM SCT012 BKN035=

USA.gov is the U.S. government's official web portal to all federal, state and local government web resources and services.